Asli Elif — TCOJ9 — position and weather

sailwx.info

Track history (hours):
 
Tides and Currents Weather Stations Pressure Air Temp Water Temp Dewpoint Dewpoint Depression Visibility Wind Speed Wind Dir Waves Ship Positions

Asli Elif

Last reported at 2017-Oct-17 02:29 UTC. Time now 2017-Oct-17 04:26 UTC.
Position N 38°49' E 020°15'.

Length 89 m; draft 5.7 m.

Type: Cargo ship. MMSI: 271000833.

Date/timePositionNaut miles runAvg speedWind from/ knotsBaromVisibWave heightAir tempDewpointWater temp
2017-Oct-17 02:29N 38°49' E 020°15'910.4
2017-Oct-17 01:37N 38°42' E 020°22'110.8
2017-Oct-17 01:30N 38°41' E 020°23'710.6
2017-Oct-17 00:51N 38°35' E 020°29'410.3
2017-Oct-17 00:30N 38°33' E 020°32'115 9.9
2017-Oct-16 12:53N 37°60' E 022°53'410.0
2017-Oct-16 12:28N 37°57' E 022°57'3 3.7
2017-Oct-16 11:34N 37°55' E 023°00'0 3.9
2017-Oct-16 11:30N 37°55' E 023°00'2 3.8
2017-Oct-16 11:00N 37°54' E 023°02'1 2.5
2017-Oct-16 10:30N 37°53' E 023°04'2 3.1
2017-Oct-16 10:00N 37°53' E 023°06'5 9.7
2017-Oct-16 09:30N 37°52' E 023°12'510.1
2017-Oct-16 09:00N 37°52' E 023°18'5 9.7
2017-Oct-16 08:30N 37°51' E 023°24'5 9.7
2017-Oct-16 07:59N 37°50' E 023°31'5 9.8
2017-Oct-16 07:30N 37°50' E 023°37'4 8.8
2017-Oct-16 07:00N 37°47' E 023°41'5 9.5
2017-Oct-16 06:30N 37°43' E 023°44'5 9.6
2017-Oct-16 06:00N 37°40' E 023°48'  
2017-Oct-11 23:44N 40°54' E 028°55'310.5
2017-Oct-11 23:29N 40°52' E 028°53'  
2017-Oct-07 06:31N 37°44' E 025°44'0 8.3
2017-Oct-07 06:29N 37°43' E 025°44'1410.3
2017-Oct-07 05:06N 37°31' E 025°36'110.2
2017-Oct-07 05:00N 37°30' E 025°35'510.1
2017-Oct-07 04:30N 37°26' E 025°32'510.1
2017-Oct-07 04:00N 37°22' E 025°27'510.2
2017-Oct-07 03:30N 37°19' E 025°22'510.0
2017-Oct-07 03:00N 37°16' E 025°17'5 9.9
2017-Oct-07 02:30N 37°13' E 025°12'  
Track history (hours):
 
Tides and Currents Weather Stations Pressure Air Temp Water Temp Dewpoint Dewpoint Depression Visibility Wind Speed Wind Dir Waves Ship Positions

Asli Elif

Last reported at 2017-Oct-17 02:29 UTC. Time now 2017-Oct-17 04:26 UTC.
Position N 38°49' E 020°15'.

Length 89 m; draft 5.7 m.

Type: Cargo ship. MMSI: 271000833.

Date/timePositionNaut miles runAvg speedWind from/ knotsBaromVisibWave heightAir tempDewpointWater temp
2017-Oct-17 02:29N 38°49' E 020°15'910.4
2017-Oct-17 01:37N 38°42' E 020°22'110.8
2017-Oct-17 01:30N 38°41' E 020°23'710.6
2017-Oct-17 00:51N 38°35' E 020°29'410.3
2017-Oct-17 00:30N 38°33' E 020°32'115 9.9
2017-Oct-16 12:53N 37°60' E 022°53'410.0
2017-Oct-16 12:28N 37°57' E 022°57'3 3.7
2017-Oct-16 11:34N 37°55' E 023°00'0 3.9
2017-Oct-16 11:30N 37°55' E 023°00'2 3.8
2017-Oct-16 11:00N 37°54' E 023°02'1 2.5
2017-Oct-16 10:30N 37°53' E 023°04'2 3.1
2017-Oct-16 10:00N 37°53' E 023°06'5 9.7
2017-Oct-16 09:30N 37°52' E 023°12'510.1
2017-Oct-16 09:00N 37°52' E 023°18'5 9.7
2017-Oct-16 08:30N 37°51' E 023°24'5 9.7
2017-Oct-16 07:59N 37°50' E 023°31'5 9.8
2017-Oct-16 07:30N 37°50' E 023°37'4 8.8
2017-Oct-16 07:00N 37°47' E 023°41'5 9.5
2017-Oct-16 06:30N 37°43' E 023°44'5 9.6
2017-Oct-16 06:00N 37°40' E 023°48'  
2017-Oct-11 23:44N 40°54' E 028°55'310.5
2017-Oct-11 23:29N 40°52' E 028°53'  
2017-Oct-07 06:31N 37°44' E 025°44'0 8.3
2017-Oct-07 06:29N 37°43' E 025°44'1410.3
2017-Oct-07 05:06N 37°31' E 025°36'110.2
2017-Oct-07 05:00N 37°30' E 025°35'510.1
2017-Oct-07 04:30N 37°26' E 025°32'510.1
2017-Oct-07 04:00N 37°22' E 025°27'510.2
2017-Oct-07 03:30N 37°19' E 025°22'510.0
2017-Oct-07 03:00N 37°16' E 025°17'5 9.9
2017-Oct-07 02:30N 37°13' E 025°12'  

Dump ship's entire track history